Time;durP1;ratioP1;P1;durP2;ratioP2;P2;SDS_P1;SDS_P2;PMS_P1;PMS_P2;Temp;Humidity;BMP_temperature;BMP_pressure;BME280_temperature;BME280_humidity;BME280_pressure;Samples;Min_cycle;Max_cycle;Signal;HPM_P1;HPM_P2
2021/05/07 00:01:15;;;;;;;6.80;2.20;;;16.00;96.70;;;;;;5041307;28;20425;-74
2021/05/07 00:03:44;;;;;;;8.55;2.65;;;16.00;96.70;;;;;;5042412;28;20508;-74
2021/05/07 00:06:11;;;;;;;8.73;2.47;;;16.00;96.70;;;;;;5031871;28;20045;-74
2021/05/07 00:08:40;;;;;;;5.97;2.40;;;15.70;96.70;;;;;;5036226;28;20213;-74
2021/05/07 00:11:09;;;;;;;8.80;3.30;;;15.80;96.70;;;;;;5040882;28;20123;-75
2021/05/07 00:13:37;;;;;;;6.10;2.75;;;15.90;96.70;;;;;;5031785;28;20655;-74
2021/05/07 00:16:05;;;;;;;6.97;2.67;;;15.80;96.70;;;;;;5039839;28;20040;-74
2021/05/07 00:18:33;;;;;;;8.38;3.03;;;15.80;96.70;;;;;;5039817;28;20045;-74
2021/05/07 00:21:02;;;;;;;8.30;3.50;;;15.70;96.70;;;;;;5021744;28;20068;-74
2021/05/07 00:23:30;;;;;;;5.60;2.60;;;15.70;96.70;;;;;;5039380;28;20045;-74
2021/05/07 00:25:58;;;;;;;6.80;2.67;;;15.70;96.70;;;;;;5039606;28;20072;-75
2021/05/07 00:32:12;;;;;;;6.13;2.80;;;15.70;96.70;;;;;;5054678;28;20501;-74
2021/05/07 00:34:40;;;;;;;8.80;2.90;;;15.70;96.70;;;;;;5042923;28;20295;-74
2021/05/07 00:37:24;;;;;;;7.70;2.92;;;15.70;96.70;;;;;;5036297;28;20507;-75
2021/05/07 00:39:52;;;;;;;11.88;2.70;;;15.70;96.70;;;;;;5035682;28;20044;-74
2021/05/07 00:42:20;;;;;;;7.70;3.00;;;15.70;96.70;;;;;;5042562;28;20048;-74
2021/05/07 00:44:50;;;;;;;8.00;2.78;;;15.60;96.70;;;;;;5041515;28;20037;-74
2021/05/07 00:47:20;;;;;;;6.85;3.45;;;15.50;96.70;;;;;;5037898;28;20068;-74
2021/05/07 00:49:49;;;;;;;10.45;3.42;;;15.60;96.70;;;;;;5034693;28;20558;-74
2021/05/07 00:52:18;;;;;;;10.70;3.38;;;15.50;96.70;;;;;;5038146;28;20404;-74
2021/05/07 00:54:49;;;;;;;10.07;3.22;;;15.50;96.70;;;;;;5024616;28;20070;-74
2021/05/07 00:57:18;;;;;;;8.60;2.80;;;15.50;96.70;;;;;;5038792;28;20064;-75
2021/05/07 00:59:47;;;;;;;4.95;2.22;;;15.50;96.70;;;;;;5039036;28;20048;-74
2021/05/07 01:02:16;;;;;;;7.55;2.63;;;15.70;96.70;;;;;;5038237;28;20037;-74
2021/05/07 01:04:45;;;;;;;9.50;2.33;;;15.60;96.70;;;;;;5037197;28;20132;-74
2021/05/07 01:07:14;;;;;;;7.07;2.08;;;15.50;96.70;;;;;;5020952;28;20879;-74
2021/05/07 01:09:43;;;;;;;7.07;2.30;;;15.60;96.70;;;;;;5036904;28;20075;-74
2021/05/07 01:12:13;;;;;;;5.45;2.03;;;15.60;96.70;;;;;;5026357;28;20893;-74
2021/05/07 01:14:42;;;;;;;4.43;1.48;;;15.60;96.70;;;;;;5035339;28;20885;-74
2021/05/07 01:17:11;;;;;;;5.10;2.22;;;15.50;96.70;;;;;;5033118;28;20048;-74
2021/05/07 01:36:21;;;;;;;5.53;1.05;;;15.50;96.70;;;;;;4998134;28;20196;-75
2021/05/07 01:42:57;;;;;;;5.13;1.10;;;15.10;96.70;;;;;;4991127;28;20177;-74
2021/05/07 01:53:45;;;;;;;4.32;1.10;;;15.20;96.70;;;;;;4992632;28;20045;-74
2021/05/07 02:04:21;;;;;;;3.53;1.20;;;15.20;96.70;;;;;;4918836;29;20492;-74
2021/05/07 02:23:38;;;;;;;4.00;1.23;;;14.90;96.70;;;;;;4883361;29;20104;-74
2021/05/07 02:38:37;;;;;;;3.28;0.80;;;14.60;96.70;;;;;;4897719;29;20107;-74
2021/05/07 02:45:15;;;;;;;5.25;1.15;;;14.30;96.70;;;;;;4902865;29;20074;-74
2021/05/07 02:49:16;;;;;;;7.80;1.15;;;14.50;96.70;;;;;;4969670;28;21061;-74
2021/05/07 02:55:53;;;;;;;4.88;1.20;;;14.80;96.70;;;;;;4992638;28;20052;-74
2021/05/07 03:06:26;;;;;;;4.90;1.35;;;14.80;96.70;;;;;;4995420;28;20053;-74
2021/05/07 03:12:39;;;;;;;3.10;1.20;;;14.60;96.70;;;;;;4993781;28;20096;-74
2021/05/07 03:15:08;;;;;;;3.20;0.80;;;14.70;96.70;;;;;;4963329;28;20045;-74
2021/05/07 03:17:36;;;;;;;4.10;1.27;;;14.70;96.70;;;;;;4978565;28;20042;-74
2021/05/07 03:20:05;;;;;;;4.40;1.17;;;14.80;96.70;;;;;;4993347;28;20046;-74
2021/05/07 03:22:33;;;;;;;5.32;1.10;;;14.90;96.70;;;;;;4989923;28;20088;-75
2021/05/07 03:25:02;;;;;;;4.15;0.85;;;14.80;96.70;;;;;;5006900;28;20053;-74
2021/05/07 03:27:33;;;;;;;4.60;1.20;;;14.90;96.70;;;;;;5035597;28;20037;-74
2021/05/07 03:30:04;;;;;;;4.95;1.15;;;14.90;96.70;;;;;;5034436;28;20526;-74
2021/05/07 03:32:32;;;;;;;5.55;1.00;;;14.90;96.70;;;;;;5032580;28;20045;-74
2021/05/07 03:35:01;;;;;;;6.55;1.30;;;14.80;96.70;;;;;;5035870;28;20033;-74
2021/05/07 03:37:29;;;;;;;3.25;1.20;;;14.70;96.70;;;;;;5034639;28;20037;-74
2021/05/07 03:39:57;;;;;;;4.03;1.17;;;14.70;96.70;;;;;;5033446;28;20033;-74
2021/05/07 03:42:26;;;;;;;3.60;1.13;;;14.70;96.70;;;;;;5036717;28;20056;-74
2021/05/07 03:44:54;;;;;;;2.95;1.00;;;14.70;96.70;;;;;;5037920;28;20033;-73
2021/05/07 03:47:24;;;;;;;4.35;1.33;;;14.70;96.70;;;;;;5032828;28;20046;-73
2021/05/07 03:49:52;;;;;;;4.82;1.30;;;14.70;96.70;;;;;;5032945;28;20052;-74
2021/05/07 03:52:21;;;;;;;2.95;1.00;;;14.70;96.70;;;;;;5036343;28;20409;-75
2021/05/07 03:54:50;;;;;;;4.72;1.50;;;14.70;96.70;;;;;;5033619;28;20041;-74
2021/05/07 03:57:25;;;;;;;4.80;1.27;;;14.80;96.70;;;;;;5032035;28;20053;-74
2021/05/07 03:59:54;;;;;;;4.70;1.48;;;14.80;96.70;;;;;;5034269;28;20483;-74
2021/05/07 04:06:19;;;;;;;2.55;1.02;;;14.70;96.70;;;;;;5038106;28;20083;-74
2021/05/07 04:09:01;;;;;;;3.67;1.35;;;14.50;96.70;;;;;;5032747;28;20045;-74
2021/05/07 04:11:40;;;;;;;2.50;0.80;;;14.50;96.70;;;;;;5030938;28;20041;-74
2021/05/07 04:14:08;;;;;;;4.78;1.30;;;14.40;96.70;;;;;;5035363;28;20128;-73
2021/05/07 04:16:37;;;;;;;5.70;1.17;;;14.40;96.70;;;;;;5034750;28;20045;-74
2021/05/07 04:19:05;;;;;;;2.72;0.70;;;14.50;96.70;;;;;;5031954;28;20061;-74
2021/05/07 04:21:35;;;;;;;3.53;0.95;;;14.50;96.70;;;;;;5036833;28;20048;-74
2021/05/07 04:24:05;;;;;;;2.75;1.23;;;14.50;96.70;;;;;;5030281;28;20053;-74
2021/05/07 04:26:33;;;;;;;3.97;1.45;;;14.50;96.70;;;;;;5035462;28;20526;-74
2021/05/07 04:29:03;;;;;;;5.75;1.38;;;14.50;96.70;;;;;;5031530;28;20060;-74
2021/05/07 04:31:32;;;;;;;5.53;1.08;;;14.40;96.70;;;;;;5040478;28;20367;-75
2021/05/07 04:34:01;;;;;;;3.35;1.00;;;14.50;96.70;;;;;;5039084;28;20040;-74
2021/05/07 04:36:29;;;;;;;4.13;1.10;;;14.60;96.70;;;;;;5024848;28;20167;-74
2021/05/07 04:38:59;;;;;;;3.00;1.15;;;14.60;96.70;;;;;;5034899;28;20056;-74
2021/05/07 04:41:28;;;;;;;4.22;1.27;;;14.50;96.70;;;;;;5034169;28;20562;-74
2021/05/07 04:43:59;;;;;;;2.50;1.10;;;14.50;96.70;;;;;;5038418;28;20134;-74
2021/05/07 04:46:27;;;;;;;3.22;0.98;;;14.60;96.70;;;;;;5041422;28;20064;-74
2021/05/07 04:48:55;;;;;;;3.65;1.25;;;14.50;96.70;;;;;;5043083;28;20107;-74
2021/05/07 04:51:23;;;;;;;7.05;1.70;;;14.40;96.70;;;;;;5021383;28;20510;-74
2021/05/07 04:53:51;;;;;;;3.72;1.10;;;14.40;96.70;;;;;;5020005;28;20048;-74
2021/05/07 04:56:20;;;;;;;6.10;1.13;;;14.50;96.70;;;;;;5038439;28;20445;-74
2021/05/07 04:58:48;;;;;;;3.75;0.80;;;14.60;96.70;;;;;;5031181;28;20132;-74
2021/05/07 05:01:16;;;;;;;3.83;1.02;;;14.50;96.70;;;;;;5035177;28;20490;-74
2021/05/07 05:03:44;;;;;;;3.35;1.02;;;14.50;96.70;;;;;;5042422;28;20793;-74
2021/05/07 05:06:12;;;;;;;2.33;1.02;;;14.50;96.70;;;;;;5035463;28;20556;-74
2021/05/07 05:08:40;;;;;;;4.10;1.02;;;14.50;96.70;;;;;;5035824;28;20238;-74
2021/05/07 05:11:08;;;;;;;4.65;1.13;;;14.60;96.70;;;;;;5039550;28;20080;-74
2021/05/07 05:13:36;;;;;;;4.22;1.40;;;14.60;96.70;;;;;;5039829;28;20079;-75
2021/05/07 05:16:06;;;;;;;4.13;1.20;;;14.80;96.70;;;;;;5021056;28;20045;-74
2021/05/07 05:18:35;;;;;;;3.45;1.08;;;14.90;96.70;;;;;;5041174;28;20884;-74
2021/05/07 05:21:04;;;;;;;4.80;1.20;;;14.90;96.70;;;;;;5038912;28;20037;-74
2021/05/07 05:23:34;;;;;;;5.22;1.40;;;15.00;96.70;;;;;;5032943;28;20051;-74
2021/05/07 05:26:02;;;;;;;5.15;1.33;;;15.00;96.70;;;;;;5030636;28;20172;-74
2021/05/07 05:28:30;;;;;;;7.78;1.48;;;15.00;96.70;;;;;;5037766;28;20049;-74
2021/05/07 05:30:59;;;;;;;2.60;1.02;;;15.00;96.70;;;;;;5022627;28;20072;-73
2021/05/07 05:33:28;;;;;;;5.40;1.15;;;15.10;96.70;;;;;;5039356;28;20041;-74
2021/05/07 05:35:56;;;;;;;4.63;1.33;;;15.00;96.70;;;;;;5034487;28;20527;-74
2021/05/07 05:38:26;;;;;;;3.72;1.20;;;15.00;96.70;;;;;;5040882;28;20116;-75
2021/05/07 05:40:53;;;;;;;8.70;1.42;;;15.10;96.70;;;;;;5036112;28;20069;-74
2021/05/07 05:43:23;;;;;;;4.93;1.38;;;15.20;96.70;;;;;;5031378;28;20136;-74
2021/05/07 05:45:50;;;;;;;5.18;1.58;;;15.20;96.70;;;;;;5036701;28;20515;-74
2021/05/07 05:48:21;;;;;;;5.75;1.77;;;15.20;96.70;;;;;;5035830;28;20128;-73
2021/05/07 05:50:50;;;;;;;7.32;1.65;;;15.20;96.70;;;;;;5038677;28;20095;-74
2021/05/07 05:53:19;;;;;;;5.22;1.85;;;15.30;96.70;;;;;;5037448;28;20431;-74
2021/05/07 05:55:47;;;;;;;12.07;1.88;;;15.40;96.70;;;;;;5034136;28;20060;-74
2021/05/07 05:58:15;;;;;;;4.28;1.80;;;15.50;96.70;;;;;;5031224;28;20052;-75
2021/05/07 06:00:43;;;;;;;5.60;1.90;;;15.50;96.70;;;;;;5033004;28;20040;-75
2021/05/07 06:03:11;;;;;;;5.60;1.60;;;15.60;96.70;;;;;;5041365;28;20115;-74
2021/05/07 06:05:40;;;;;;;5.13;1.85;;;15.70;96.70;;;;;;5036591;28;20037;-74
2021/05/07 06:08:08;;;;;;;6.35;1.67;;;15.70;96.70;;;;;;5034649;28;20049;-74
2021/05/07 06:10:37;;;;;;;4.68;1.48;;;15.80;96.70;;;;;;5018238;28;20049;-74
2021/05/07 06:13:05;;;;;;;4.82;1.30;;;15.80;96.70;;;;;;5038767;28;20430;-74
2021/05/07 06:15:33;;;;;;;4.78;1.45;;;15.90;96.70;;;;;;5038750;28;20461;-74
2021/05/07 06:18:01;;;;;;;7.50;1.95;;;15.90;96.70;;;;;;5029871;28;20033;-74
2021/05/07 06:20:29;;;;;;;3.63;1.60;;;16.00;96.70;;;;;;5034311;28;20041;-74
2021/05/07 06:22:58;;;;;;;5.93;1.67;;;16.10;96.70;;;;;;5016032;28;20044;-74
2021/05/07 06:25:26;;;;;;;5.80;1.58;;;16.10;96.70;;;;;;5039331;28;20052;-74
2021/05/07 06:27:54;;;;;;;5.53;1.90;;;16.20;96.70;;;;;;5037049;28;20059;-74
2021/05/07 06:30:22;;;;;;;4.78;1.75;;;16.20;96.70;;;;;;5028389;28;20037;-74
2021/05/07 06:32:50;;;;;;;6.43;2.28;;;16.20;96.70;;;;;;5031566;28;20789;-74
2021/05/07 06:35:18;;;;;;;5.72;1.65;;;16.20;96.70;;;;;;5036807;28;20581;-74
2021/05/07 06:37:45;;;;;;;4.70;2.00;;;16.40;96.70;;;;;;5029765;28;20049;-74
2021/05/07 06:40:15;;;;;;;6.47;1.85;;;16.50;96.70;;;;;;5036050;28;20052;-74
2021/05/07 06:42:46;;;;;;;7.20;2.20;;;16.50;96.70;;;;;;5036721;28;20760;-76
2021/05/07 06:45:15;;;;;;;6.85;2.28;;;16.50;96.70;;;;;;5039409;28;20514;-72
2021/05/07 06:47:43;;;;;;;5.97;2.05;;;16.60;96.70;;;;;;5034687;28;20112;-72
2021/05/07 06:50:12;;;;;;;10.48;2.65;;;16.70;96.70;;;;;;5035817;28;20045;-73
2021/05/07 06:52:39;;;;;;;8.95;2.55;;;16.80;96.70;;;;;;5036707;28;20048;-73
2021/05/07 06:55:11;;;;;;;11.52;2.95;;;16.90;96.70;;;;;;5038685;28;20119;-73
2021/05/07 06:57:40;;;;;;;7.93;2.88;;;17.00;96.70;;;;;;5034432;28;20045;-72
2021/05/07 07:00:09;;;;;;;8.65;2.30;;;17.00;96.70;;;;;;5035995;28;20431;-73
2021/05/07 07:02:38;;;;;;;8.55;2.70;;;17.10;96.70;;;;;;5037005;28;20144;-75
2021/05/07 07:05:07;;;;;;;10.50;2.88;;;17.10;96.70;;;;;;5035505;28;20041;-75
2021/05/07 07:07:36;;;;;;;10.07;3.20;;;17.20;96.70;;;;;;5033770;28;20049;-73
2021/05/07 07:10:21;;;;;;;9.55;3.13;;;17.30;96.70;;;;;;5035567;28;20067;-74
2021/05/07 07:12:50;;;;;;;10.05;3.42;;;17.40;96.70;;;;;;5036325;28;20043;-73
2021/05/07 07:15:18;;;;;;;12.07;2.83;;;17.60;96.70;;;;;;5038567;28;20045;-74
2021/05/07 07:17:46;;;;;;;9.18;3.03;;;17.60;96.70;;;;;;5034787;28;20036;-73
2021/05/07 07:20:15;;;;;;;8.23;3.05;;;17.70;96.70;;;;;;5035362;28;20045;-73
2021/05/07 07:22:44;;;;;;;8.07;2.80;;;17.90;96.70;;;;;;5032328;28;20526;-73
2021/05/07 07:25:13;;;;;;;7.57;2.72;;;18.00;96.70;;;;;;5030803;28;20511;-73
2021/05/07 07:27:41;;;;;;;9.10;2.80;;;18.20;96.70;;;;;;5034118;28;20049;-72
2021/05/07 07:30:12;;;;;;;10.05;3.20;;;18.30;96.70;;;;;;5033667;28;20052;-73
2021/05/07 07:32:40;;;;;;;11.23;2.90;;;18.40;96.70;;;;;;5031371;28;20041;-73
2021/05/07 07:35:09;;;;;;;13.25;3.30;;;18.40;96.70;;;;;;5032260;28;20059;-73
2021/05/07 07:37:37;;;;;;;8.95;2.92;;;18.40;96.70;;;;;;5040460;28;20396;-73
2021/05/07 07:40:06;;;;;;;9.95;2.13;;;18.60;96.70;;;;;;5033129;28;20053;-73
2021/05/07 07:42:34;;;;;;;8.25;1.63;;;18.70;96.70;;;;;;5009819;28;20045;-73
2021/05/07 07:45:02;;;;;;;7.75;2.05;;;18.60;96.70;;;;;;5035935;28;20040;-74
2021/05/07 07:47:31;;;;;;;9.90;2.80;;;18.70;96.70;;;;;;5036406;28;20041;-73
2021/05/07 07:49:59;;;;;;;8.60;1.88;;;18.70;96.70;;;;;;5034298;28;20111;-74
2021/05/07 07:52:27;;;;;;;10.90;2.42;;;18.80;96.70;;;;;;5027777;28;20045;-74
2021/05/07 07:54:54;;;;;;;5.80;2.08;;;18.80;96.70;;;;;;5034529;28;20053;-72
2021/05/07 07:57:25;;;;;;;7.35;1.95;;;18.80;96.70;;;;;;5035659;28;20446;-73
2021/05/07 07:59:53;;;;;;;7.72;2.20;;;18.90;96.70;;;;;;5036582;28;20041;-73
2021/05/07 08:02:21;;;;;;;7.70;1.85;;;19.00;96.70;;;;;;5031098;28;20495;-72
2021/05/07 08:04:50;;;;;;;11.02;2.15;;;19.00;96.70;;;;;;5043014;28;20048;-73
2021/05/07 08:07:18;;;;;;;5.40;1.70;;;19.10;96.70;;;;;;5041709;28;20044;-73
2021/05/07 08:09:47;;;;;;;5.75;1.50;;;19.20;96.70;;;;;;5037168;28;20040;-73
2021/05/07 08:12:15;;;;;;;7.25;2.08;;;19.30;96.70;;;;;;5038258;28;20057;-73
2021/05/07 08:14:42;;;;;;;6.93;2.00;;;19.30;96.70;;;;;;5037619;28;20138;-73
2021/05/07 08:17:10;;;;;;;9.75;2.90;;;19.30;96.70;;;;;;5022750;28;20045;-73
2021/05/07 08:19:44;;;;;;;9.10;2.33;;;19.30;96.70;;;;;;5037978;28;20146;-73
2021/05/07 08:22:13;;;;;;;9.18;2.65;;;19.50;96.70;;;;;;5043975;28;20048;-73
2021/05/07 08:24:42;;;;;;;9.80;2.70;;;19.70;96.70;;;;;;5036574;28;20055;-74
2021/05/07 08:27:10;;;;;;;7.22;2.17;;;19.60;96.70;;;;;;5024927;28;20052;-73
2021/05/07 08:29:38;;;;;;;13.02;2.83;;;19.60;96.70;;;;;;5037474;28;20045;-73
2021/05/07 08:32:06;;;;;;;9.65;2.28;;;19.70;96.70;;;;;;5039688;28;20033;-72
2021/05/07 08:34:34;;;;;;;8.32;2.10;;;19.80;96.70;;;;;;5042222;28;20103;-72
2021/05/07 08:37:02;;;;;;;6.03;2.00;;;19.80;96.70;;;;;;5042375;28;20314;-73
2021/05/07 08:39:34;;;;;;;11.52;2.83;;;19.80;96.70;;;;;;5036977;28;20200;-73
2021/05/07 08:42:04;;;;;;;8.35;2.80;;;19.80;96.70;;;;;;5039604;28;20235;-73
2021/05/07 08:44:32;;;;;;;11.00;3.55;;;19.90;96.70;;;;;;5037418;28;20057;-73
2021/05/07 08:47:02;;;;;;;10.55;3.75;;;20.00;96.70;;;;;;5035548;28;21449;-73
2021/05/07 08:49:30;;;;;;;8.20;2.85;;;19.90;96.70;;;;;;5037537;28;20037;-73
2021/05/07 08:51:58;;;;;;;8.07;2.50;;;20.00;96.70;;;;;;5033804;28;20041;-73
2021/05/07 08:54:29;;;;;;;12.40;2.58;;;20.00;96.70;;;;;;5037054;28;20224;-74
2021/05/07 08:56:58;;;;;;;10.27;2.65;;;20.10;96.70;;;;;;5039615;28;20442;-75
2021/05/07 08:59:25;;;;;;;6.85;2.38;;;20.00;96.70;;;;;;5042243;28;20037;-74
2021/05/07 09:01:53;;;;;;;9.65;1.77;;;20.00;96.70;;;;;;5036230;28;20103;-75
2021/05/07 09:04:22;;;;;;;6.95;2.22;;;20.10;96.70;;;;;;5034609;28;20037;-75
2021/05/07 09:06:52;;;;;;;9.85;2.70;;;20.30;96.70;;;;;;5041288;28;20128;-75
2021/05/07 09:09:25;;;;;;;7.75;1.90;;;20.20;96.70;;;;;;5037553;28;20132;-76
2021/05/07 09:12:00;;;;;;;7.43;1.60;;;20.30;96.70;;;;;;5036819;28;20045;-75
2021/05/07 09:14:29;;;;;;;10.85;2.45;;;20.30;96.70;;;;;;5031497;28;20490;-75
2021/05/07 09:17:20;;;;;;;9.93;1.77;;;20.40;96.70;;;;;;5034202;28;20061;-75
2021/05/07 09:19:50;;;;;;;8.40;1.77;;;20.40;96.70;;;;;;5034861;28;20037;-73
2021/05/07 09:22:25;;;;;;;8.10;1.85;;;20.60;96.70;;;;;;5037423;28;20041;-73
2021/05/07 09:25:05;;;;;;;6.68;1.38;;;20.70;96.70;;;;;;5052756;28;20049;-74
2021/05/07 09:27:34;;;;;;;10.18;1.70;;;20.70;96.70;;;;;;5035493;28;20061;-72
2021/05/07 09:30:05;;;;;;;7.32;1.40;;;20.60;96.70;;;;;;5033411;28;20115;-74
2021/05/07 09:32:34;;;;;;;8.82;1.73;;;20.50;96.70;;;;;;5035117;28;20514;-73
2021/05/07 09:35:08;;;;;;;7.68;1.95;;;20.40;96.70;;;;;;5034435;28;20133;-73
2021/05/07 09:37:37;;;;;;;6.60;1.25;;;20.40;96.70;;;;;;5034248;28;20052;-73
2021/05/07 09:40:16;;;;;;;7.70;1.85;;;20.30;96.70;;;;;;5037101;28;20088;-73
2021/05/07 09:42:45;;;;;;;8.15;2.05;;;20.30;96.70;;;;;;5034374;28;20045;-73
2021/05/07 09:45:24;;;;;;;9.18;2.08;;;20.30;96.70;;;;;;5023980;28;20060;-73
2021/05/07 09:47:53;;;;;;;9.27;1.85;;;20.40;96.70;;;;;;5036041;28;20052;-73
2021/05/07 09:50:32;;;;;;;9.48;1.90;;;20.40;96.70;;;;;;5031930;28;20057;-73
2021/05/07 09:53:09;;;;;;;10.40;1.90;;;20.60;96.70;;;;;;5036279;28;20127;-74
2021/05/07 09:55:37;;;;;;;6.97;1.60;;;20.70;96.70;;;;;;5037287;28;20494;-73
2021/05/07 09:58:06;;;;;;;6.95;1.50;;;20.70;96.70;;;;;;5032393;28;20651;-73
2021/05/07 10:00:34;;;;;;;10.23;2.00;;;20.80;96.50;;;;;;5036759;28;20048;-74
2021/05/07 10:03:02;;;;;;;12.95;2.50;;;20.70;96.70;;;;;;5035877;28;20232;-73
2021/05/07 10:05:30;;;;;;;5.55;1.50;;;20.80;96.70;;;;;;5036529;28;20056;-74
2021/05/07 10:07:59;;;;;;;6.93;1.52;;;20.80;96.60;;;;;;5034365;28;20048;-73
2021/05/07 10:10:31;;;;;;;5.63;1.00;;;20.70;96.40;;;;;;5035329;28;20064;-73
2021/05/07 10:13:01;;;;;;;6.28;1.00;;;20.50;96.70;;;;;;5029668;28;20067;-73
2021/05/07 10:15:35;;;;;;;7.68;1.50;;;20.50;96.70;;;;;;5039081;28;20049;-73
2021/05/07 10:18:04;;;;;;;8.98;1.65;;;20.40;96.70;;;;;;5036139;28;20341;-73
2021/05/07 10:20:34;;;;;;;9.50;1.60;;;20.40;96.70;;;;;;5031883;28;20556;-73
2021/05/07 10:23:14;;;;;;;9.55;1.63;;;20.50;96.70;;;;;;5035250;28;20044;-73
2021/05/07 10:25:56;;;;;;;7.88;1.42;;;20.50;96.70;;;;;;5034387;28;20061;-73
2021/05/07 10:28:24;;;;;;;4.68;1.10;;;20.60;96.70;;;;;;5036241;28;20580;-74
2021/05/07 10:31:04;;;;;;;3.15;1.20;;;20.90;95.20;;;;;;5033130;28;20088;-74
2021/05/07 10:33:32;;;;;;;5.93;1.33;;;21.00;94.90;;;;;;5034054;28;20041;-73
2021/05/07 10:36:01;;;;;;;5.40;1.52;;;21.00;94.80;;;;;;5033486;28;20090;-73
2021/05/07 10:38:29;;;;;;;3.83;1.10;;;21.00;94.70;;;;;;5032312;28;20041;-73
2021/05/07 10:41:06;;;;;;;5.60;1.00;;;21.20;93.90;;;;;;5033332;28;20137;-73
2021/05/07 10:43:38;;;;;;;8.52;1.40;;;21.10;93.20;;;;;;5038067;28;20733;-74
2021/05/07 10:46:20;;;;;;;7.38;1.30;;;21.00;93.60;;;;;;5037940;28;20045;-74
2021/05/07 10:48:52;;;;;;;5.05;1.08;;;21.00;93.60;;;;;;5022976;28;20563;-73
2021/05/07 10:51:20;;;;;;;5.63;1.27;;;21.00;93.70;;;;;;5028664;28;20033;-73
2021/05/07 10:53:48;;;;;;;5.43;1.00;;;21.00;94.50;;;;;;5035957;28;20032;-74
2021/05/07 10:56:19;;;;;;;5.55;1.33;;;21.00;94.00;;;;;;5031231;28;20061;-72
2021/05/07 10:58:47;;;;;;;5.20;0.98;;;20.90;94.10;;;;;;5020244;28;20046;-73
2021/05/07 11:01:19;;;;;;;4.15;1.10;;;20.90;93.80;;;;;;5033849;28;20041;-73
2021/05/07 11:03:58;;;;;;;3.65;0.70;;;20.90;94.00;;;;;;5037860;28;20033;-73
2021/05/07 11:06:31;;;;;;;5.10;1.02;;;20.90;93.80;;;;;;5036754;28;20573;-73
2021/05/07 11:09:16;;;;;;;7.85;1.33;;;20.90;94.00;;;;;;5036226;28;20522;-73
2021/05/07 11:11:45;;;;;;;9.23;1.27;;;21.00;94.80;;;;;;5032397;28;20650;-73
2021/05/07 11:14:13;;;;;;;8.07;1.92;;;21.00;94.60;;;;;;5041356;28;20490;-72
2021/05/07 11:16:43;;;;;;;4.50;1.20;;;21.00;94.80;;;;;;5034410;28;20044;-73
2021/05/07 11:19:25;;;;;;;7.60;1.17;;;21.20;94.70;;;;;;5039027;28;20517;-73
2021/05/07 11:21:55;;;;;;;4.82;1.20;;;21.00;94.80;;;;;;5029710;28;20070;-73
2021/05/07 11:24:27;;;;;;;7.88;1.55;;;21.10;95.50;;;;;;5033713;28;20053;-73
2021/05/07 11:26:56;;;;;;;8.70;1.38;;;21.00;95.30;;;;;;5035026;28;20045;-73
2021/05/07 11:29:31;;;;;;;9.00;1.70;;;20.90;95.00;;;;;;5034984;28;20037;-74
2021/05/07 11:32:12;;;;;;;7.30;1.40;;;20.80;95.70;;;;;;5034181;28;20283;-73
2021/05/07 11:34:40;;;;;;;4.63;1.20;;;20.90;95.80;;;;;;5029972;28;20045;-73
2021/05/07 11:37:09;;;;;;;7.75;1.98;;;20.90;95.10;;;;;;5035071;28;20033;-73
2021/05/07 11:39:37;;;;;;;7.30;1.55;;;20.90;95.00;;;;;;5029394;28;20037;-73
2021/05/07 11:42:06;;;;;;;5.88;0.90;;;20.90;95.10;;;;;;5028913;28;20124;-73
2021/05/07 11:44:34;;;;;;;9.68;2.25;;;20.90;95.30;;;;;;5033641;28;20044;-73
2021/05/07 11:47:07;;;;;;;13.00;2.17;;;20.90;95.00;;;;;;5032414;28;20052;-73
2021/05/07 11:49:37;;;;;;;11.70;1.50;;;20.90;95.20;;;;;;5034727;28;20048;-73
2021/05/07 11:52:06;;;;;;;7.68;1.63;;;20.90;95.50;;;;;;5036032;28;20064;-73
2021/05/07 11:54:41;;;;;;;8.20;1.92;;;21.10;95.20;;;;;;5035391;28;20052;-73
2021/05/07 11:57:10;;;;;;;9.68;1.65;;;21.00;94.80;;;;;;5029635;28;20049;-73
2021/05/07 11:59:47;;;;;;;8.43;1.98;;;20.90;94.80;;;;;;5029700;28;20041;-73
2021/05/07 12:02:22;;;;;;;6.32;1.20;;;21.00;95.10;;;;;;5036078;28;20088;-73
2021/05/07 12:04:54;;;;;;;7.68;1.55;;;21.00;94.40;;;;;;5035091;28;20071;-73
2021/05/07 12:07:24;;;;;;;6.80;1.65;;;21.10;94.90;;;;;;5038774;28;20044;-73
2021/05/07 12:09:52;;;;;;;6.22;1.52;;;21.20;94.80;;;;;;5035453;28;20050;-73
2021/05/07 12:12:20;;;;;;;7.50;1.58;;;21.70;93.00;;;;;;5034265;28;20140;-73
2021/05/07 12:15:06;;;;;;;8.02;1.83;;;21.80;92.20;;;;;;5030463;28;20050;-73
2021/05/07 12:17:42;;;;;;;9.50;1.77;;;21.70;92.60;;;;;;5035625;28;20115;-73
2021/05/07 12:20:14;;;;;;;10.77;1.73;;;22.10;92.60;;;;;;5034494;28;20110;-74
2021/05/07 12:22:42;;;;;;;6.05;1.52;;;22.30;90.80;;;;;;5033770;28;20123;-73
2021/05/07 12:25:14;;;;;;;6.57;1.38;;;22.10;90.80;;;;;;5031668;28;20592;-73
2021/05/07 12:27:47;;;;;;;8.70;1.60;;;22.00;91.30;;;;;;5021841;28;20450;-73
2021/05/07 12:30:21;;;;;;;5.55;1.52;;;21.90;91.80;;;;;;5035159;28;20040;-75
2021/05/07 12:32:56;;;;;;;6.45;1.40;;;21.90;91.40;;;;;;5037368;28;20514;-74
2021/05/07 12:35:36;;;;;;;5.82;1.27;;;22.00;92.10;;;;;;5036932;28;20051;-73
2021/05/07 12:38:29;;;;;;;11.55;1.88;;;21.70;90.50;;;;;;5032601;28;20164;-73
2021/05/07 12:40:59;;;;;;;5.13;1.08;;;21.70;91.00;;;;;;5035631;28;20126;-74
2021/05/07 12:43:28;;;;;;;4.43;0.95;;;21.90;90.80;;;;;;5034695;28;20049;-74
2021/05/07 12:45:56;;;;;;;4.93;1.35;;;22.20;90.00;;;;;;5025233;28;20344;-74
2021/05/07 12:48:47;;;;;;;8.82;1.40;;;22.30;89.90;;;;;;5034225;28;20033;-74
2021/05/07 12:51:17;;;;;;;13.85;2.05;;;22.10;90.50;;;;;;5037637;28;20048;-74
2021/05/07 12:53:45;;;;;;;8.25;1.42;;;22.20;89.60;;;;;;5034831;28;20044;-74
2021/05/07 12:56:14;;;;;;;6.85;1.58;;;22.40;89.60;;;;;;5036891;28;20063;-73
2021/05/07 12:58:41;;;;;;;8.15;1.35;;;22.50;88.60;;;;;;5039089;28;20887;-75
2021/05/07 13:01:10;;;;;;;9.52;1.65;;;22.50;88.90;;;;;;5020964;28;20137;-74
2021/05/07 13:03:38;;;;;;;12.98;1.92;;;22.70;89.50;;;;;;5037814;28;20125;-76
2021/05/07 13:06:07;;;;;;;11.65;1.65;;;22.70;87.70;;;;;;5039837;28;20037;-74
2021/05/07 13:08:36;;;;;;;10.75;2.33;;;22.70;87.00;;;;;;5025690;28;20555;-73
2021/05/07 13:11:04;;;;;;;5.07;1.20;;;22.70;87.80;;;;;;5014768;28;20403;-74
2021/05/07 13:13:38;;;;;;;5.15;1.10;;;23.00;88.00;;;;;;5033176;28;20111;-74
2021/05/07 13:16:07;;;;;;;5.70;1.25;;;23.10;85.40;;;;;;5036300;28;20517;-74
2021/05/07 13:18:34;;;;;;;8.85;1.30;;;23.20;85.20;;;;;;5056606;28;20041;-75
2021/05/07 13:21:02;;;;;;;5.95;1.25;;;23.10;85.10;;;;;;5037811;28;20033;-74
2021/05/07 13:23:30;;;;;;;3.55;0.60;;;23.10;85.30;;;;;;5036708;28;20037;-74
2021/05/07 13:25:58;;;;;;;4.57;0.98;;;23.10;85.90;;;;;;5036439;28;20044;-74
2021/05/07 13:28:26;;;;;;;19.98;1.92;;;22.90;85.40;;;;;;5039597;28;20056;-74
2021/05/07 13:30:54;;;;;;;10.02;1.15;;;22.30;86.20;;;;;;5040618;28;20131;-74
2021/05/07 13:33:25;;;;;;;4.78;1.00;;;22.40;86.70;;;;;;5033804;28;20708;-76
2021/05/07 13:35:54;;;;;;;6.07;1.02;;;22.60;86.70;;;;;;5042582;28;20127;-75
2021/05/07 13:38:22;;;;;;;4.45;1.05;;;22.80;85.70;;;;;;5038277;28;20458;-74
2021/05/07 13:40:52;;;;;;;3.22;0.98;;;22.70;86.80;;;;;;5017956;28;20057;-75
2021/05/07 13:43:22;;;;;;;9.18;1.42;;;23.10;86.00;;;;;;5033188;28;20347;-75
2021/05/07 13:45:50;;;;;;;5.45;0.82;;;22.80;86.40;;;;;;5035819;28;20141;-74
2021/05/07 13:48:18;;;;;;;9.35;1.30;;;22.50;87.60;;;;;;5039706;28;20056;-74
2021/05/07 13:50:49;;;;;;;6.43;1.38;;;22.60;88.00;;;;;;5037590;28;20639;-74
2021/05/07 13:53:18;;;;;;;6.57;1.15;;;22.60;88.40;;;;;;5036975;28;20044;-74
2021/05/07 13:55:45;;;;;;;5.70;1.00;;;23.30;87.50;;;;;;5037082;28;20138;-74
2021/05/07 13:58:13;;;;;;;6.75;1.55;;;23.60;86.10;;;;;;5035791;28;20140;-74
2021/05/07 14:00:42;;;;;;;5.68;1.20;;;24.00;85.40;;;;;;5030653;28;20084;-75
2021/05/07 14:03:09;;;;;;;7.13;1.27;;;24.00;84.80;;;;;;5039135;28;20037;-74
2021/05/07 14:05:37;;;;;;;6.53;1.10;;;24.00;84.60;;;;;;5039034;28;20033;-75
2021/05/07 14:08:05;;;;;;;6.35;1.65;;;24.10;84.00;;;;;;5041617;28;20142;-74
2021/05/07 14:10:33;;;;;;;5.45;1.00;;;24.10;83.70;;;;;;5036545;28;20249;-74
2021/05/07 14:13:00;;;;;;;3.45;1.15;;;24.20;83.90;;;;;;5038731;28;20057;-74
2021/05/07 14:15:31;;;;;;;9.88;1.38;;;24.00;84.40;;;;;;5040484;28;20444;-74
2021/05/07 14:18:00;;;;;;;6.35;1.80;;;24.30;83.50;;;;;;5036648;28;20119;-74
2021/05/07 14:20:29;;;;;;;9.52;1.92;;;24.10;83.70;;;;;;5034602;28;20426;-74
2021/05/07 14:22:56;;;;;;;6.00;1.20;;;24.60;83.40;;;;;;5041165;28;20048;-74
2021/05/07 14:25:25;;;;;;;5.72;1.48;;;24.50;82.70;;;;;;5029910;28;20750;-74
2021/05/07 14:27:53;;;;;;;7.05;1.40;;;24.30;83.70;;;;;;5037234;28;20659;-75
2021/05/07 14:30:21;;;;;;;8.60;1.42;;;24.80;83.00;;;;;;5034161;28;20047;-74
2021/05/07 14:32:48;;;;;;;8.65;1.33;;;24.10;83.30;;;;;;5037793;28;20040;-74
2021/05/07 14:35:17;;;;;;;5.70;1.33;;;24.10;83.80;;;;;;5017658;28;20707;-74